sensor_id;sensor_type;location;lat;lon;timestamp;P1;durP1;ratioP1;P2;durP2;ratioP2
11338;SDS011;5724;42.684;23.252;2023-05-18T00:01:05;1.90;;;1.80;;
11338;SDS011;5724;42.684;23.252;2023-05-18T00:03:31;1.83;;;1.70;;
11338;SDS011;5724;42.684;23.252;2023-05-18T00:05:57;1.42;;;1.40;;
11338;SDS011;5724;42.684;23.252;2023-05-18T00:08:31;2.10;;;1.90;;
11338;SDS011;5724;42.684;23.252;2023-05-18T00:10:57;1.70;;;1.60;;
11338;SDS011;5724;42.684;23.252;2023-05-18T00:13:22;1.88;;;1.67;;
11338;SDS011;5724;42.684;23.252;2023-05-18T00:15:48;2.58;;;1.50;;
11338;SDS011;5724;42.684;23.252;2023-05-18T00:18:13;1.40;;;1.30;;
11338;SDS011;5724;42.684;23.252;2023-05-18T00:20:39;1.35;;;1.35;;
11338;SDS011;5724;42.684;23.252;2023-05-18T00:23:05;1.17;;;1.17;;
11338;SDS011;5724;42.684;23.252;2023-05-18T00:25:34;2.67;;;1.42;;
11338;SDS011;5724;42.684;23.252;2023-05-18T00:28:00;2.53;;;1.35;;
11338;SDS011;5724;42.684;23.252;2023-05-18T00:30:26;1.30;;;1.30;;
11338;SDS011;5724;42.684;23.252;2023-05-18T00:32:51;1.38;;;1.30;;
11338;SDS011;5724;42.684;23.252;2023-05-18T00:35:16;1.95;;;0.90;;
11338;SDS011;5724;42.684;23.252;2023-05-18T00:37:42;0.80;;;0.80;;
11338;SDS011;5724;42.684;23.252;2023-05-18T00:40:08;0.80;;;0.80;;
11338;SDS011;5724;42.684;23.252;2023-05-18T00:42:34;0.88;;;0.88;;
11338;SDS011;5724;42.684;23.252;2023-05-18T00:45:00;0.90;;;0.90;;
11338;SDS011;5724;42.684;23.252;2023-05-18T00:47:26;0.75;;;0.75;;
11338;SDS011;5724;42.684;23.252;2023-05-18T00:49:52;1.20;;;1.10;;
11338;SDS011;5724;42.684;23.252;2023-05-18T00:52:18;1.02;;;0.82;;
11338;SDS011;5724;42.684;23.252;2023-05-18T00:54:45;1.40;;;0.85;;
11338;SDS011;5724;42.684;23.252;2023-05-18T00:57:11;0.90;;;0.90;;
11338;SDS011;5724;42.684;23.252;2023-05-18T00:59:36;0.70;;;0.70;;
11338;SDS011;5724;42.684;23.252;2023-05-18T01:02:02;0.70;;;0.63;;
11338;SDS011;5724;42.684;23.252;2023-05-18T01:04:28;0.77;;;0.77;;
11338;SDS011;5724;42.684;23.252;2023-05-18T01:06:55;1.27;;;0.90;;
11338;SDS011;5724;42.684;23.252;2023-05-18T01:09:22;1.25;;;1.13;;
11338;SDS011;5724;42.684;23.252;2023-05-18T01:11:56;1.30;;;1.30;;
11338;SDS011;5724;42.684;23.252;2023-05-18T01:14:32;1.30;;;1.30;;
11338;SDS011;5724;42.684;23.252;2023-05-18T01:26:24;1.30;;;1.30;;
11338;SDS011;5724;42.684;23.252;2023-05-18T01:28:55;1.40;;;1.33;;
11338;SDS011;5724;42.684;23.252;2023-05-18T01:31:22;1.20;;;1.20;;
11338;SDS011;5724;42.684;23.252;2023-05-18T01:33:48;1.38;;;1.30;;
11338;SDS011;5724;42.684;23.252;2023-05-18T01:36:13;2.50;;;1.45;;
11338;SDS011;5724;42.684;23.252;2023-05-18T01:38:39;1.50;;;1.40;;
11338;SDS011;5724;42.684;23.252;2023-05-18T01:41:21;4.65;;;1.52;;
11338;SDS011;5724;42.684;23.252;2023-05-18T01:49:45;1.30;;;1.20;;
11338;SDS011;5724;42.684;23.252;2023-05-18T01:52:18;1.17;;;1.05;;
11338;SDS011;5724;42.684;23.252;2023-05-18T01:54:48;1.30;;;1.30;;
11338;SDS011;5724;42.684;23.252;2023-05-18T01:57:16;1.85;;;1.05;;
11338;SDS011;5724;42.684;23.252;2023-05-18T01:59:43;1.40;;;1.40;;
11338;SDS011;5724;42.684;23.252;2023-05-18T02:02:10;1.40;;;1.40;;
11338;SDS011;5724;42.684;23.252;2023-05-18T02:04:36;2.42;;;1.90;;
11338;SDS011;5724;42.684;23.252;2023-05-18T02:07:02;1.83;;;1.73;;
11338;SDS011;5724;42.684;23.252;2023-05-18T02:09:27;1.42;;;1.33;;
11338;SDS011;5724;42.684;23.252;2023-05-18T02:11:53;1.40;;;1.40;;
11338;SDS011;5724;42.684;23.252;2023-05-18T02:14:18;3.13;;;1.45;;
11338;SDS011;5724;42.684;23.252;2023-05-18T02:16:44;2.35;;;1.65;;
11338;SDS011;5724;42.684;23.252;2023-05-18T02:19:11;1.90;;;1.80;;
11338;SDS011;5724;42.684;23.252;2023-05-18T02:21:38;1.75;;;1.50;;
11338;SDS011;5724;42.684;23.252;2023-05-18T02:24:05;1.40;;;1.40;;
11338;SDS011;5724;42.684;23.252;2023-05-18T02:26:31;2.45;;;1.50;;
11338;SDS011;5724;42.684;23.252;2023-05-18T02:28:57;1.40;;;1.40;;
11338;SDS011;5724;42.684;23.252;2023-05-18T02:31:22;1.77;;;1.67;;
11338;SDS011;5724;42.684;23.252;2023-05-18T02:33:48;1.58;;;1.48;;
11338;SDS011;5724;42.684;23.252;2023-05-18T02:36:13;1.63;;;1.52;;
11338;SDS011;5724;42.684;23.252;2023-05-18T02:38:39;2.15;;;1.42;;
11338;SDS011;5724;42.684;23.252;2023-05-18T02:41:10;2.92;;;1.45;;
11338;SDS011;5724;42.684;23.252;2023-05-18T02:43:36;1.67;;;1.58;;
11338;SDS011;5724;42.684;23.252;2023-05-18T02:46:02;2.45;;;1.33;;
11338;SDS011;5724;42.684;23.252;2023-05-18T02:48:28;1.83;;;1.67;;
11338;SDS011;5724;42.684;23.252;2023-05-18T02:50:54;1.95;;;1.20;;
11338;SDS011;5724;42.684;23.252;2023-05-18T02:53:20;1.88;;;1.20;;
11338;SDS011;5724;42.684;23.252;2023-05-18T02:55:45;1.60;;;1.50;;
11338;SDS011;5724;42.684;23.252;2023-05-18T02:58:12;1.33;;;1.33;;
11338;SDS011;5724;42.684;23.252;2023-05-18T03:00:38;1.35;;;1.35;;
11338;SDS011;5724;42.684;23.252;2023-05-18T03:03:05;1.58;;;1.58;;
11338;SDS011;5724;42.684;23.252;2023-05-18T03:05:34;2.08;;;1.98;;
11338;SDS011;5724;42.684;23.252;2023-05-18T03:08:01;2.50;;;2.30;;
11338;SDS011;5724;42.684;23.252;2023-05-18T03:10:26;2.53;;;2.33;;
11338;SDS011;5724;42.684;23.252;2023-05-18T03:12:52;2.90;;;2.70;;
11338;SDS011;5724;42.684;23.252;2023-05-18T03:15:17;4.50;;;2.67;;
11338;SDS011;5724;42.684;23.252;2023-05-18T03:17:43;3.30;;;3.20;;
11338;SDS011;5724;42.684;23.252;2023-05-18T03:20:09;3.22;;;2.80;;
11338;SDS011;5724;42.684;23.252;2023-05-18T03:22:36;3.55;;;3.35;;
11338;SDS011;5724;42.684;23.252;2023-05-18T03:25:02;4.72;;;4.45;;
11338;SDS011;5724;42.684;23.252;2023-05-18T03:27:29;4.00;;;3.72;;
11338;SDS011;5724;42.684;23.252;2023-05-18T03:29:54;5.55;;;3.47;;
11338;SDS011;5724;42.684;23.252;2023-05-18T03:32:23;5.45;;;2.97;;
11338;SDS011;5724;42.684;23.252;2023-05-18T03:34:49;7.28;;;6.78;;
11338;SDS011;5724;42.684;23.252;2023-05-18T03:37:18;4.22;;;3.92;;
11338;SDS011;5724;42.684;23.252;2023-05-18T03:39:43;3.80;;;3.55;;
11338;SDS011;5724;42.684;23.252;2023-05-18T03:42:09;6.55;;;6.07;;
11338;SDS011;5724;42.684;23.252;2023-05-18T03:44:34;3.67;;;3.50;;
11338;SDS011;5724;42.684;23.252;2023-05-18T03:47:00;3.75;;;3.55;;
11338;SDS011;5724;42.684;23.252;2023-05-18T03:49:26;3.75;;;3.55;;
11338;SDS011;5724;42.684;23.252;2023-05-18T03:51:51;3.63;;;3.33;;
11338;SDS011;5724;42.684;23.252;2023-05-18T03:54:18;4.25;;;3.95;;
11338;SDS011;5724;42.684;23.252;2023-05-18T03:56:45;4.03;;;3.83;;
11338;SDS011;5724;42.684;23.252;2023-05-18T03:59:11;4.22;;;4.00;;
11338;SDS011;5724;42.684;23.252;2023-05-18T04:01:36;4.28;;;4.07;;
11338;SDS011;5724;42.684;23.252;2023-05-18T04:04:06;4.15;;;3.95;;
11338;SDS011;5724;42.684;23.252;2023-05-18T04:06:41;4.43;;;4.22;;
11338;SDS011;5724;42.684;23.252;2023-05-18T04:09:13;4.30;;;4.05;;
11338;SDS011;5724;42.684;23.252;2023-05-18T04:11:41;4.28;;;4.07;;
11338;SDS011;5724;42.684;23.252;2023-05-18T04:14:07;4.32;;;4.10;;
11338;SDS011;5724;42.684;23.252;2023-05-18T04:16:33;4.70;;;4.50;;
11338;SDS011;5724;42.684;23.252;2023-05-18T04:18:59;5.22;;;4.80;;
11338;SDS011;5724;42.684;23.252;2023-05-18T04:21:25;4.78;;;4.50;;
11338;SDS011;5724;42.684;23.252;2023-05-18T04:23:51;4.95;;;4.43;;
11338;SDS011;5724;42.684;23.252;2023-05-18T04:26:16;4.68;;;4.13;;
11338;SDS011;5724;42.684;23.252;2023-05-18T04:28:44;5.20;;;4.80;;
11338;SDS011;5724;42.684;23.252;2023-05-18T04:31:11;5.45;;;5.10;;
11338;SDS011;5724;42.684;23.252;2023-05-18T04:33:38;7.88;;;7.47;;
11338;SDS011;5724;42.684;23.252;2023-05-18T04:36:05;5.13;;;4.88;;
11338;SDS011;5724;42.684;23.252;2023-05-18T04:38:34;7.90;;;7.53;;
11338;SDS011;5724;42.684;23.252;2023-05-18T04:40:59;5.78;;;5.38;;
11338;SDS011;5724;42.684;23.252;2023-05-18T04:43:29;5.70;;;5.18;;
11338;SDS011;5724;42.684;23.252;2023-05-18T04:45:54;5.78;;;5.28;;
11338;SDS011;5724;42.684;23.252;2023-05-18T04:48:23;5.18;;;4.88;;
11338;SDS011;5724;42.684;23.252;2023-05-18T04:50:50;5.43;;;4.97;;
11338;SDS011;5724;42.684;23.252;2023-05-18T04:53:18;5.43;;;4.90;;
11338;SDS011;5724;42.684;23.252;2023-05-18T04:55:45;4.97;;;4.60;;
11338;SDS011;5724;42.684;23.252;2023-05-18T04:58:14;4.78;;;4.38;;
11338;SDS011;5724;42.684;23.252;2023-05-18T05:00:39;8.77;;;8.18;;
11338;SDS011;5724;42.684;23.252;2023-05-18T05:03:05;8.73;;;8.20;;
11338;SDS011;5724;42.684;23.252;2023-05-18T05:05:30;4.43;;;4.20;;
11338;SDS011;5724;42.684;23.252;2023-05-18T05:07:56;5.32;;;5.03;;
11338;SDS011;5724;42.684;23.252;2023-05-18T05:10:22;4.28;;;4.00;;
11338;SDS011;5724;42.684;23.252;2023-05-18T05:12:49;4.60;;;4.35;;
11338;SDS011;5724;42.684;23.252;2023-05-18T05:15:15;4.40;;;4.07;;
11338;SDS011;5724;42.684;23.252;2023-05-18T05:17:41;4.53;;;4.15;;
11338;SDS011;5724;42.684;23.252;2023-05-18T05:20:06;4.50;;;4.10;;
11338;SDS011;5724;42.684;23.252;2023-05-18T05:22:32;4.40;;;4.10;;
11338;SDS011;5724;42.684;23.252;2023-05-18T05:24:58;4.50;;;4.30;;
11338;SDS011;5724;42.684;23.252;2023-05-18T05:27:23;4.90;;;4.53;;
11338;SDS011;5724;42.684;23.252;2023-05-18T05:29:50;4.75;;;4.55;;
11338;SDS011;5724;42.684;23.252;2023-05-18T05:32:15;4.35;;;4.15;;
11338;SDS011;5724;42.684;23.252;2023-05-18T05:34:41;4.53;;;4.32;;
11338;SDS011;5724;42.684;23.252;2023-05-18T05:37:12;5.78;;;5.47;;
11338;SDS011;5724;42.684;23.252;2023-05-18T05:39:38;5.32;;;4.88;;
11338;SDS011;5724;42.684;23.252;2023-05-18T05:42:04;4.68;;;4.45;;
11338;SDS011;5724;42.684;23.252;2023-05-18T05:44:31;4.45;;;4.15;;
11338;SDS011;5724;42.684;23.252;2023-05-18T05:46:56;4.07;;;3.88;;
11338;SDS011;5724;42.684;23.252;2023-05-18T05:49:22;4.15;;;3.95;;
11338;SDS011;5724;42.684;23.252;2023-05-18T05:51:47;4.57;;;4.38;;
11338;SDS011;5724;42.684;23.252;2023-05-18T05:54:13;4.70;;;4.50;;
11338;SDS011;5724;42.684;23.252;2023-05-18T05:56:38;4.80;;;4.60;;
11338;SDS011;5724;42.684;23.252;2023-05-18T05:59:04;4.70;;;4.50;;
11338;SDS011;5724;42.684;23.252;2023-05-18T06:01:30;4.53;;;4.32;;
11338;SDS011;5724;42.684;23.252;2023-05-18T06:03:56;4.78;;;4.53;;
11338;SDS011;5724;42.684;23.252;2023-05-18T06:06:21;5.28;;;4.97;;
11338;SDS011;5724;42.684;23.252;2023-05-18T06:08:47;5.70;;;5.10;;
11338;SDS011;5724;42.684;23.252;2023-05-18T06:11:12;6.63;;;5.88;;
11338;SDS011;5724;42.684;23.252;2023-05-18T06:13:38;5.95;;;5.45;;
11338;SDS011;5724;42.684;23.252;2023-05-18T06:16:03;5.25;;;4.85;;
11338;SDS011;5724;42.684;23.252;2023-05-18T06:18:29;5.57;;;5.18;;
11338;SDS011;5724;42.684;23.252;2023-05-18T06:20:56;5.38;;;4.97;;
11338;SDS011;5724;42.684;23.252;2023-05-18T06:23:22;5.00;;;4.80;;
11338;SDS011;5724;42.684;23.252;2023-05-18T06:25:48;5.97;;;5.40;;
11338;SDS011;5724;42.684;23.252;2023-05-18T06:28:14;5.32;;;4.93;;
11338;SDS011;5724;42.684;23.252;2023-05-18T06:30:40;4.90;;;4.60;;
11338;SDS011;5724;42.684;23.252;2023-05-18T06:33:06;5.90;;;5.40;;
11338;SDS011;5724;42.684;23.252;2023-05-18T06:35:32;6.28;;;5.95;;
11338;SDS011;5724;42.684;23.252;2023-05-18T06:37:57;5.90;;;5.43;;
11338;SDS011;5724;42.684;23.252;2023-05-18T06:40:23;5.13;;;4.90;;
11338;SDS011;5724;42.684;23.252;2023-05-18T06:42:48;5.65;;;5.35;;
11338;SDS011;5724;42.684;23.252;2023-05-18T06:45:14;5.93;;;5.57;;
11338;SDS011;5724;42.684;23.252;2023-05-18T06:47:40;6.00;;;5.60;;
11338;SDS011;5724;42.684;23.252;2023-05-18T06:50:06;5.35;;;5.00;;
11338;SDS011;5724;42.684;23.252;2023-05-18T06:52:33;6.15;;;5.65;;
11338;SDS011;5724;42.684;23.252;2023-05-18T06:54:58;6.60;;;6.20;;
11338;SDS011;5724;42.684;23.252;2023-05-18T06:57:25;7.10;;;6.57;;
11338;SDS011;5724;42.684;23.252;2023-05-18T06:59:51;7.28;;;6.75;;
11338;SDS011;5724;42.684;23.252;2023-05-18T07:02:20;6.97;;;6.68;;
11338;SDS011;5724;42.684;23.252;2023-05-18T07:04:46;7.57;;;6.75;;
11338;SDS011;5724;42.684;23.252;2023-05-18T07:07:13;8.00;;;7.30;;
11338;SDS011;5724;42.684;23.252;2023-05-18T07:09:39;8.15;;;7.55;;
11338;SDS011;5724;42.684;23.252;2023-05-18T07:12:07;7.50;;;7.10;;
11338;SDS011;5724;42.684;23.252;2023-05-18T07:14:33;8.20;;;7.50;;
11338;SDS011;5724;42.684;23.252;2023-05-18T07:16:58;7.90;;;7.38;;
11338;SDS011;5724;42.684;23.252;2023-05-18T07:19:24;8.18;;;7.68;;
11338;SDS011;5724;42.684;23.252;2023-05-18T07:21:49;8.07;;;7.68;;
11338;SDS011;5724;42.684;23.252;2023-05-18T07:24:15;8.73;;;8.10;;
11338;SDS011;5724;42.684;23.252;2023-05-18T07:26:40;8.75;;;8.25;;
11338;SDS011;5724;42.684;23.252;2023-05-18T07:29:06;11.73;;;9.07;;
11338;SDS011;5724;42.684;23.252;2023-05-18T07:31:31;10.25;;;9.27;;
11338;SDS011;5724;42.684;23.252;2023-05-18T07:33:57;11.13;;;10.32;;
11338;SDS011;5724;42.684;23.252;2023-05-18T07:36:23;9.63;;;8.82;;
11338;SDS011;5724;42.684;23.252;2023-05-18T07:38:49;9.70;;;9.07;;
11338;SDS011;5724;42.684;23.252;2023-05-18T07:41:19;10.80;;;10.20;;
11338;SDS011;5724;42.684;23.252;2023-05-18T07:43:47;12.20;;;10.95;;
11338;SDS011;5724;42.684;23.252;2023-05-18T07:46:13;18.23;;;16.58;;
11338;SDS011;5724;42.684;23.252;2023-05-18T07:48:38;17.88;;;16.17;;
11338;SDS011;5724;42.684;23.252;2023-05-18T07:51:04;16.27;;;14.93;;
11338;SDS011;5724;42.684;23.252;2023-05-18T07:53:29;13.40;;;12.13;;
11338;SDS011;5724;42.684;23.252;2023-05-18T07:55:55;12.95;;;11.95;;
11338;SDS011;5724;42.684;23.252;2023-05-18T07:58:20;12.75;;;11.50;;
11338;SDS011;5724;42.684;23.252;2023-05-18T08:00:46;12.65;;;11.43;;
11338;SDS011;5724;42.684;23.252;2023-05-18T08:03:11;12.15;;;11.05;;
11338;SDS011;5724;42.684;23.252;2023-05-18T08:05:36;11.35;;;10.38;;
11338;SDS011;5724;42.684;23.252;2023-05-18T08:08:02;14.27;;;13.13;;
11338;SDS011;5724;42.684;23.252;2023-05-18T08:10:28;12.45;;;11.32;;
11338;SDS011;5724;42.684;23.252;2023-05-18T08:12:53;12.15;;;11.07;;
11338;SDS011;5724;42.684;23.252;2023-05-18T08:15:19;10.88;;;9.80;;
11338;SDS011;5724;42.684;23.252;2023-05-18T08:17:44;11.20;;;10.40;;
11338;SDS011;5724;42.684;23.252;2023-05-18T08:20:11;11.57;;;10.50;;
11338;SDS011;5724;42.684;23.252;2023-05-18T08:22:37;13.90;;;12.52;;
11338;SDS011;5724;42.684;23.252;2023-05-18T08:25:02;12.52;;;11.43;;
11338;SDS011;5724;42.684;23.252;2023-05-18T08:27:28;12.27;;;11.25;;
11338;SDS011;5724;42.684;23.252;2023-05-18T08:29:53;14.23;;;12.88;;
11338;SDS011;5724;42.684;23.252;2023-05-18T08:32:19;12.23;;;11.02;;
11338;SDS011;5724;42.684;23.252;2023-05-18T08:34:45;12.70;;;11.70;;
11338;SDS011;5724;42.684;23.252;2023-05-18T08:37:11;12.02;;;10.82;;
11338;SDS011;5724;42.684;23.252;2023-05-18T08:39:36;12.18;;;11.10;;
11338;SDS011;5724;42.684;23.252;2023-05-18T08:44:34;11.80;;;10.70;;
11338;SDS011;5724;42.684;23.252;2023-05-18T08:47:06;11.05;;;9.32;;
11338;SDS011;5724;42.684;23.252;2023-05-18T08:49:34;13.02;;;9.45;;
11338;SDS011;5724;42.684;23.252;2023-05-18T08:52:02;9.85;;;8.88;;
11338;SDS011;5724;42.684;23.252;2023-05-18T08:54:28;13.05;;;9.35;;
11338;SDS011;5724;42.684;23.252;2023-05-18T08:56:54;11.70;;;8.73;;
11338;SDS011;5724;42.684;23.252;2023-05-18T08:59:23;9.57;;;7.65;;
11338;SDS011;5724;42.684;23.252;2023-05-18T09:01:50;9.02;;;8.10;;
11338;SDS011;5724;42.684;23.252;2023-05-18T09:04:18;7.95;;;7.45;;
11338;SDS011;5724;42.684;23.252;2023-05-18T09:06:45;10.02;;;8.48;;
11338;SDS011;5724;42.684;23.252;2023-05-18T09:09:12;9.02;;;8.00;;
11338;SDS011;5724;42.684;23.252;2023-05-18T09:11:38;9.60;;;8.60;;
11338;SDS011;5724;42.684;23.252;2023-05-18T09:14:05;11.43;;;8.60;;
11338;SDS011;5724;42.684;23.252;2023-05-18T09:16:31;9.93;;;9.05;;
11338;SDS011;5724;42.684;23.252;2023-05-18T09:18:57;14.63;;;10.60;;
11338;SDS011;5724;42.684;23.252;2023-05-18T09:21:23;12.20;;;10.90;;
11338;SDS011;5724;42.684;23.252;2023-05-18T09:23:50;18.35;;;13.70;;
11338;SDS011;5724;42.684;23.252;2023-05-18T09:26:17;19.00;;;14.05;;
11338;SDS011;5724;42.684;23.252;2023-05-18T09:28:43;12.77;;;11.77;;
11338;SDS011;5724;42.684;23.252;2023-05-18T09:31:15;11.82;;;10.75;;
11338;SDS011;5724;42.684;23.252;2023-05-18T09:33:42;12.50;;;10.25;;
11338;SDS011;5724;42.684;23.252;2023-05-18T09:36:09;11.52;;;10.43;;
11338;SDS011;5724;42.684;23.252;2023-05-18T09:38:45;10.70;;;9.77;;
11338;SDS011;5724;42.684;23.252;2023-05-18T09:41:11;10.15;;;9.23;;
11338;SDS011;5724;42.684;23.252;2023-05-18T09:43:39;10.43;;;9.43;;
11338;SDS011;5724;42.684;23.252;2023-05-18T09:46:06;12.02;;;10.77;;
11338;SDS011;5724;42.684;23.252;2023-05-18T09:48:33;10.65;;;9.75;;
11338;SDS011;5724;42.684;23.252;2023-05-18T09:51:01;9.70;;;8.98;;
11338;SDS011;5724;42.684;23.252;2023-05-18T09:53:28;9.63;;;9.02;;
11338;SDS011;5724;42.684;23.252;2023-05-18T09:55:53;9.68;;;9.00;;
11338;SDS011;5724;42.684;23.252;2023-05-18T09:58:19;9.65;;;8.93;;
11338;SDS011;5724;42.684;23.252;2023-05-18T10:00:47;12.30;;;11.10;;
11338;SDS011;5724;42.684;23.252;2023-05-18T10:03:24;9.93;;;9.13;;
11338;SDS011;5724;42.684;23.252;2023-05-18T10:05:50;10.45;;;9.48;;
11338;SDS011;5724;42.684;23.252;2023-05-18T10:08:16;9.85;;;9.13;;
11338;SDS011;5724;42.684;23.252;2023-05-18T10:10:45;9.63;;;8.82;;
11338;SDS011;5724;42.684;23.252;2023-05-18T10:13:14;9.90;;;9.20;;
11338;SDS011;5724;42.684;23.252;2023-05-18T10:15:48;9.85;;;9.10;;
11338;SDS011;5724;42.684;23.252;2023-05-18T10:18:21;10.27;;;9.38;;
11338;SDS011;5724;42.684;23.252;2023-05-18T10:20:48;15.52;;;10.00;;
11338;SDS011;5724;42.684;23.252;2023-05-18T10:23:16;10.98;;;10.15;;
11338;SDS011;5724;42.684;23.252;2023-05-18T10:25:44;10.80;;;9.98;;
11338;SDS011;5724;42.684;23.252;2023-05-18T10:28:10;9.55;;;8.55;;
11338;SDS011;5724;42.684;23.252;2023-05-18T10:30:39;10.55;;;9.73;;
11338;SDS011;5724;42.684;23.252;2023-05-18T10:33:06;9.00;;;8.38;;
11338;SDS011;5724;42.684;23.252;2023-05-18T10:35:34;9.35;;;8.50;;
11338;SDS011;5724;42.684;23.252;2023-05-18T10:38:02;9.48;;;8.32;;
11338;SDS011;5724;42.684;23.252;2023-05-18T10:40:30;9.02;;;7.72;;
11338;SDS011;5724;42.684;23.252;2023-05-18T10:42:58;8.00;;;7.43;;
11338;SDS011;5724;42.684;23.252;2023-05-18T10:45:27;8.52;;;7.82;;
11338;SDS011;5724;42.684;23.252;2023-05-18T10:47:58;10.15;;;8.32;;
11338;SDS011;5724;42.684;23.252;2023-05-18T10:50:24;9.70;;;8.88;;
11338;SDS011;5724;42.684;23.252;2023-05-18T10:52:50;9.80;;;8.93;;
11338;SDS011;5724;42.684;23.252;2023-05-18T10:55:17;10.93;;;9.98;;
11338;SDS011;5724;42.684;23.252;2023-05-18T10:57:45;9.95;;;8.93;;
11338;SDS011;5724;42.684;23.252;2023-05-18T11:00:15;9.18;;;8.55;;
11338;SDS011;5724;42.684;23.252;2023-05-18T11:02:42;9.90;;;8.35;;
11338;SDS011;5724;42.684;23.252;2023-05-18T11:05:08;8.30;;;7.70;;
11338;SDS011;5724;42.684;23.252;2023-05-18T11:07:35;8.43;;;7.90;;
11338;SDS011;5724;42.684;23.252;2023-05-18T11:10:02;8.23;;;7.63;;
11338;SDS011;5724;42.684;23.252;2023-05-18T11:12:31;16.60;;;8.80;;
11338;SDS011;5724;42.684;23.252;2023-05-18T11:14:58;8.65;;;7.72;;
11338;SDS011;5724;42.684;23.252;2023-05-18T11:17:27;8.82;;;7.90;;
11338;SDS011;5724;42.684;23.252;2023-05-18T11:27:58;11.13;;;8.60;;
11338;SDS011;5724;42.684;23.252;2023-05-18T11:30:43;12.90;;;11.60;;
11338;SDS011;5724;42.684;23.252;2023-05-18T11:36:02;9.10;;;8.18;;
11338;SDS011;5724;42.684;23.252;2023-05-18T11:38:46;8.70;;;7.85;;
11338;SDS011;5724;42.684;23.252;2023-05-18T11:41:32;8.75;;;8.15;;
11338;SDS011;5724;42.684;23.252;2023-05-18T11:44:13;7.68;;;7.07;;
11338;SDS011;5724;42.684;23.252;2023-05-18T11:47:13;8.43;;;7.82;;
11338;SDS011;5724;42.684;23.252;2023-05-18T11:49:40;9.25;;;7.78;;
11338;SDS011;5724;42.684;23.252;2023-05-18T11:54:47;7.18;;;6.72;;
11338;SDS011;5724;42.684;23.252;2023-05-18T11:59:59;7.68;;;6.63;;
11338;SDS011;5724;42.684;23.252;2023-05-18T12:02:29;11.75;;;9.25;;
11338;SDS011;5724;42.684;23.252;2023-05-18T12:04:56;17.77;;;15.07;;
11338;SDS011;5724;42.684;23.252;2023-05-18T12:07:27;10.35;;;9.43;;
11338;SDS011;5724;42.684;23.252;2023-05-18T12:09:58;11.63;;;8.35;;
11338;SDS011;5724;42.684;23.252;2023-05-18T12:12:26;7.25;;;6.68;;
11338;SDS011;5724;42.684;23.252;2023-05-18T12:14:53;11.02;;;6.43;;
11338;SDS011;5724;42.684;23.252;2023-05-18T12:17:20;7.35;;;6.80;;
11338;SDS011;5724;42.684;23.252;2023-05-18T12:19:47;4.38;;;3.97;;
11338;SDS011;5724;42.684;23.252;2023-05-18T12:22:13;4.35;;;4.10;;
11338;SDS011;5724;42.684;23.252;2023-05-18T12:24:40;4.57;;;4.18;;
11338;SDS011;5724;42.684;23.252;2023-05-18T12:27:07;4.38;;;4.07;;
11338;SDS011;5724;42.684;23.252;2023-05-18T12:29:36;5.03;;;4.60;;
11338;SDS011;5724;42.684;23.252;2023-05-18T12:32:07;4.82;;;4.50;;
11338;SDS011;5724;42.684;23.252;2023-05-18T12:34:33;4.30;;;4.10;;
11338;SDS011;5724;42.684;23.252;2023-05-18T12:36:59;4.35;;;4.00;;
11338;SDS011;5724;42.684;23.252;2023-05-18T12:39:25;4.72;;;4.30;;
11338;SDS011;5724;42.684;23.252;2023-05-18T12:41:50;3.85;;;3.55;;
11338;SDS011;5724;42.684;23.252;2023-05-18T12:44:16;4.30;;;4.00;;
11338;SDS011;5724;42.684;23.252;2023-05-18T12:46:42;4.68;;;4.28;;
11338;SDS011;5724;42.684;23.252;2023-05-18T12:49:07;5.07;;;4.68;;
11338;SDS011;5724;42.684;23.252;2023-05-18T12:51:34;4.78;;;4.40;;
11338;SDS011;5724;42.684;23.252;2023-05-18T12:54:04;4.57;;;4.28;;
11338;SDS011;5724;42.684;23.252;2023-05-18T12:59:23;6.28;;;4.32;;
11338;SDS011;5724;42.684;23.252;2023-05-18T13:01:49;5.50;;;4.88;;
11338;SDS011;5724;42.684;23.252;2023-05-18T13:04:15;12.05;;;7.30;;
11338;SDS011;5724;42.684;23.252;2023-05-18T13:06:41;47.72;;;26.88;;
11338;SDS011;5724;42.684;23.252;2023-05-18T13:09:07;47.67;;;27.13;;
11338;SDS011;5724;42.684;23.252;2023-05-18T13:11:36;5.78;;;5.38;;
11338;SDS011;5724;42.684;23.252;2023-05-18T13:14:02;22.48;;;14.80;;
11338;SDS011;5724;42.684;23.252;2023-05-18T13:16:29;34.63;;;20.73;;
11338;SDS011;5724;42.684;23.252;2023-05-18T13:18:56;5.65;;;5.10;;
11338;SDS011;5724;42.684;23.252;2023-05-18T13:21:23;3.88;;;3.55;;
11338;SDS011;5724;42.684;23.252;2023-05-18T13:23:49;7.20;;;6.40;;
11338;SDS011;5724;42.684;23.252;2023-05-18T13:26:14;4.72;;;4.32;;
11338;SDS011;5724;42.684;23.252;2023-05-18T13:28:40;5.65;;;5.10;;
11338;SDS011;5724;42.684;23.252;2023-05-18T13:31:05;5.07;;;4.57;;
11338;SDS011;5724;42.684;23.252;2023-05-18T13:33:31;5.97;;;5.55;;
11338;SDS011;5724;42.684;23.252;2023-05-18T13:35:57;5.07;;;4.68;;
11338;SDS011;5724;42.684;23.252;2023-05-18T13:38:23;8.00;;;7.20;;
11338;SDS011;5724;42.684;23.252;2023-05-18T13:40:48;6.60;;;6.00;;
11338;SDS011;5724;42.684;23.252;2023-05-18T13:43:14;10.07;;;7.40;;
11338;SDS011;5724;42.684;23.252;2023-05-18T13:45:40;6.25;;;5.80;;
11338;SDS011;5724;42.684;23.252;2023-05-18T13:48:06;5.43;;;5.03;;
11338;SDS011;5724;42.684;23.252;2023-05-18T13:50:33;4.75;;;4.38;;
11338;SDS011;5724;42.684;23.252;2023-05-18T13:52:58;9.00;;;6.00;;
11338;SDS011;5724;42.684;23.252;2023-05-18T13:55:24;7.28;;;6.55;;
11338;SDS011;5724;42.684;23.252;2023-05-18T13:57:49;12.52;;;8.55;;
11338;SDS011;5724;42.684;23.252;2023-05-18T14:00:15;22.05;;;12.85;;
11338;SDS011;5724;42.684;23.252;2023-05-18T14:02:41;6.20;;;5.63;;
11338;SDS011;5724;42.684;23.252;2023-05-18T14:05:08;5.45;;;5.05;;
11338;SDS011;5724;42.684;23.252;2023-05-18T14:07:35;5.05;;;4.75;;
11338;SDS011;5724;42.684;23.252;2023-05-18T14:10:01;4.35;;;4.03;;
11338;SDS011;5724;42.684;23.252;2023-05-18T14:12:27;4.65;;;4.45;;
11338;SDS011;5724;42.684;23.252;2023-05-18T14:14:53;4.95;;;4.57;;
11338;SDS011;5724;42.684;23.252;2023-05-18T14:17:18;4.47;;;4.15;;
11338;SDS011;5724;42.684;23.252;2023-05-18T14:19:44;5.28;;;4.85;;
11338;SDS011;5724;42.684;23.252;2023-05-18T14:22:09;7.63;;;6.90;;
11338;SDS011;5724;42.684;23.252;2023-05-18T14:24:35;5.20;;;4.82;;
11338;SDS011;5724;42.684;23.252;2023-05-18T14:27:00;4.85;;;4.00;;
11338;SDS011;5724;42.684;23.252;2023-05-18T14:29:26;3.78;;;3.58;;
11338;SDS011;5724;42.684;23.252;2023-05-18T14:31:51;3.45;;;3.25;;
11338;SDS011;5724;42.684;23.252;2023-05-18T14:34:17;4.70;;;3.15;;
11338;SDS011;5724;42.684;23.252;2023-05-18T14:36:42;3.47;;;3.28;;
11338;SDS011;5724;42.684;23.252;2023-05-18T14:39:08;4.00;;;3.80;;
11338;SDS011;5724;42.684;23.252;2023-05-18T14:41:33;4.03;;;3.72;;
11338;SDS011;5724;42.684;23.252;2023-05-18T14:43:59;4.00;;;3.80;;
11338;SDS011;5724;42.684;23.252;2023-05-18T14:46:27;5.05;;;4.63;;
11338;SDS011;5724;42.684;23.252;2023-05-18T14:48:53;4.57;;;4.28;;
11338;SDS011;5724;42.684;23.252;2023-05-18T14:51:18;7.32;;;4.50;;
11338;SDS011;5724;42.684;23.252;2023-05-18T14:53:44;4.28;;;3.95;;
11338;SDS011;5724;42.684;23.252;2023-05-18T14:56:10;4.45;;;4.18;;
11338;SDS011;5724;42.684;23.252;2023-05-18T14:58:35;5.40;;;4.97;;
11338;SDS011;5724;42.684;23.252;2023-05-18T15:01:01;5.78;;;5.22;;
11338;SDS011;5724;42.684;23.252;2023-05-18T15:03:27;5.30;;;4.85;;
11338;SDS011;5724;42.684;23.252;2023-05-18T15:05:52;5.05;;;4.70;;
11338;SDS011;5724;42.684;23.252;2023-05-18T15:08:18;6.32;;;5.80;;
11338;SDS011;5724;42.684;23.252;2023-05-18T15:10:43;13.73;;;12.45;;
11338;SDS011;5724;42.684;23.252;2023-05-18T15:13:09;6.68;;;5.35;;
11338;SDS011;5724;42.684;23.252;2023-05-18T15:15:34;6.70;;;5.53;;
11338;SDS011;5724;42.684;23.252;2023-05-18T15:18:00;8.23;;;7.55;;